sensor_id;sensor_type;location;lat;lon;timestamp;temperature;humidity
41592;DHT22;28026;48.562;14.440;2024-02-23T00:01:36;6.90;99.90
41592;DHT22;28026;48.562;14.440;2024-02-23T00:04:07;6.90;99.90
41592;DHT22;28026;48.562;14.440;2024-02-23T00:06:38;6.90;99.90
41592;DHT22;28026;48.562;14.440;2024-02-23T00:09:09;6.90;99.90
41592;DHT22;28026;48.562;14.440;2024-02-23T00:11:40;6.90;99.90
41592;DHT22;28026;48.562;14.440;2024-02-23T00:14:15;6.90;99.90
41592;DHT22;28026;48.562;14.440;2024-02-23T00:16:50;6.90;99.90
41592;DHT22;28026;48.562;14.440;2024-02-23T00:19:21;6.90;99.90
41592;DHT22;28026;48.562;14.440;2024-02-23T00:21:53;6.90;99.90
41592;DHT22;28026;48.562;14.440;2024-02-23T00:24:23;6.80;99.90
41592;DHT22;28026;48.562;14.440;2024-02-23T00:26:54;6.80;99.90
41592;DHT22;28026;48.562;14.440;2024-02-23T00:29:25;6.80;99.90
41592;DHT22;28026;48.562;14.440;2024-02-23T00:31:56;6.90;99.90
41592;DHT22;28026;48.562;14.440;2024-02-23T00:34:26;7.00;99.90
41592;DHT22;28026;48.562;14.440;2024-02-23T00:36:57;7.10;99.90
41592;DHT22;28026;48.562;14.440;2024-02-23T00:39:28;7.00;99.90
41592;DHT22;28026;48.562;14.440;2024-02-23T00:41:59;6.90;99.90
41592;DHT22;28026;48.562;14.440;2024-02-23T00:44:30;6.90;99.90
41592;DHT22;28026;48.562;14.440;2024-02-23T00:47:01;6.90;99.90
41592;DHT22;28026;48.562;14.440;2024-02-23T00:49:33;6.90;99.90
41592;DHT22;28026;48.562;14.440;2024-02-23T00:52:04;6.90;99.90
41592;DHT22;28026;48.562;14.440;2024-02-23T00:54:35;7.00;99.90
41592;DHT22;28026;48.562;14.440;2024-02-23T00:57:06;7.00;99.90
41592;DHT22;28026;48.562;14.440;2024-02-23T00:59:36;7.00;99.90
41592;DHT22;28026;48.562;14.440;2024-02-23T01:02:07;6.80;99.90
41592;DHT22;28026;48.562;14.440;2024-02-23T01:04:38;6.80;99.90
41592;DHT22;28026;48.562;14.440;2024-02-23T01:07:09;6.90;99.90
41592;DHT22;28026;48.562;14.440;2024-02-23T01:09:39;7.10;99.90
41592;DHT22;28026;48.562;14.440;2024-02-23T01:12:10;7.10;99.90
41592;DHT22;28026;48.562;14.440;2024-02-23T01:14:41;7.50;99.90
41592;DHT22;28026;48.562;14.440;2024-02-23T01:17:12;7.40;99.90
41592;DHT22;28026;48.562;14.440;2024-02-23T01:19:43;7.30;99.90
41592;DHT22;28026;48.562;14.440;2024-02-23T01:22:14;7.20;99.90
41592;DHT22;28026;48.562;14.440;2024-02-23T01:24:45;7.10;99.90
41592;DHT22;28026;48.562;14.440;2024-02-23T01:27:16;7.00;99.90
41592;DHT22;28026;48.562;14.440;2024-02-23T01:29:47;6.80;99.90
41592;DHT22;28026;48.562;14.440;2024-02-23T01:32:18;6.60;99.90
41592;DHT22;28026;48.562;14.440;2024-02-23T01:34:49;6.50;99.90
41592;DHT22;28026;48.562;14.440;2024-02-23T01:37:19;6.60;99.90
41592;DHT22;28026;48.562;14.440;2024-02-23T01:39:50;6.70;99.90
41592;DHT22;28026;48.562;14.440;2024-02-23T01:42:21;6.70;99.90
41592;DHT22;28026;48.562;14.440;2024-02-23T01:44:52;6.90;99.90
41592;DHT22;28026;48.562;14.440;2024-02-23T01:47:23;7.00;99.90
41592;DHT22;28026;48.562;14.440;2024-02-23T01:49:56;7.00;99.90
41592;DHT22;28026;48.562;14.440;2024-02-23T01:52:29;7.30;99.90
41592;DHT22;28026;48.562;14.440;2024-02-23T01:55:00;7.80;99.90
41592;DHT22;28026;48.562;14.440;2024-02-23T01:57:31;7.70;99.90
41592;DHT22;28026;48.562;14.440;2024-02-23T02:00:05;7.60;99.90
41592;DHT22;28026;48.562;14.440;2024-02-23T02:02:37;7.30;99.90
41592;DHT22;28026;48.562;14.440;2024-02-23T02:05:09;7.00;99.90
41592;DHT22;28026;48.562;14.440;2024-02-23T02:07:40;6.70;99.90
41592;DHT22;28026;48.562;14.440;2024-02-23T02:10:12;6.60;99.90
41592;DHT22;28026;48.562;14.440;2024-02-23T02:12:43;6.40;99.90
41592;DHT22;28026;48.562;14.440;2024-02-23T02:15:14;6.40;99.90
41592;DHT22;28026;48.562;14.440;2024-02-23T02:17:45;6.30;99.90
41592;DHT22;28026;48.562;14.440;2024-02-23T02:20:15;6.20;99.90
41592;DHT22;28026;48.562;14.440;2024-02-23T02:22:53;6.20;99.90
41592;DHT22;28026;48.562;14.440;2024-02-23T02:25:24;6.10;99.90
41592;DHT22;28026;48.562;14.440;2024-02-23T02:27:55;6.10;99.90
41592;DHT22;28026;48.562;14.440;2024-02-23T02:30:26;6.00;99.90
41592;DHT22;28026;48.562;14.440;2024-02-23T02:32:57;6.00;99.90
41592;DHT22;28026;48.562;14.440;2024-02-23T02:35:28;5.90;99.90
41592;DHT22;28026;48.562;14.440;2024-02-23T02:37:58;5.90;99.90
41592;DHT22;28026;48.562;14.440;2024-02-23T02:40:29;5.90;99.90
41592;DHT22;28026;48.562;14.440;2024-02-23T02:43:02;6.00;99.90
41592;DHT22;28026;48.562;14.440;2024-02-23T02:45:33;6.00;99.90
41592;DHT22;28026;48.562;14.440;2024-02-23T02:48:04;6.00;99.90
41592;DHT22;28026;48.562;14.440;2024-02-23T02:50:36;6.00;99.90
41592;DHT22;28026;48.562;14.440;2024-02-23T02:53:07;6.00;99.90
41592;DHT22;28026;48.562;14.440;2024-02-23T02:55:41;6.00;99.90
41592;DHT22;28026;48.562;14.440;2024-02-23T02:58:13;6.00;99.90
41592;DHT22;28026;48.562;14.440;2024-02-23T03:00:44;6.00;99.90
41592;DHT22;28026;48.562;14.440;2024-02-23T03:03:16;6.00;99.90
41592;DHT22;28026;48.562;14.440;2024-02-23T03:05:46;6.00;99.90
41592;DHT22;28026;48.562;14.440;2024-02-23T03:08:17;6.00;99.90
41592;DHT22;28026;48.562;14.440;2024-02-23T03:10:48;6.00;99.90
41592;DHT22;28026;48.562;14.440;2024-02-23T03:13:19;6.00;99.90
41592;DHT22;28026;48.562;14.440;2024-02-23T03:15:49;5.90;99.90
41592;DHT22;28026;48.562;14.440;2024-02-23T03:18:20;5.90;99.90
41592;DHT22;28026;48.562;14.440;2024-02-23T03:20:51;5.90;99.90
41592;DHT22;28026;48.562;14.440;2024-02-23T03:23:22;5.80;99.90
41592;DHT22;28026;48.562;14.440;2024-02-23T03:25:53;5.80;99.90
41592;DHT22;28026;48.562;14.440;2024-02-23T03:28:24;5.70;99.90
41592;DHT22;28026;48.562;14.440;2024-02-23T03:30:55;5.80;99.90
41592;DHT22;28026;48.562;14.440;2024-02-23T03:33:25;5.80;99.90
41592;DHT22;28026;48.562;14.440;2024-02-23T03:35:57;5.80;99.90
41592;DHT22;28026;48.562;14.440;2024-02-23T03:38:28;5.60;99.90
41592;DHT22;28026;48.562;14.440;2024-02-23T03:41:00;5.60;99.90
41592;DHT22;28026;48.562;14.440;2024-02-23T03:43:31;5.70;99.90
41592;DHT22;28026;48.562;14.440;2024-02-23T03:46:02;5.60;99.90
41592;DHT22;28026;48.562;14.440;2024-02-23T03:48:33;5.60;99.90
41592;DHT22;28026;48.562;14.440;2024-02-23T03:51:04;5.60;99.90
41592;DHT22;28026;48.562;14.440;2024-02-23T03:53:35;5.60;99.90
41592;DHT22;28026;48.562;14.440;2024-02-23T03:56:06;5.50;99.90
41592;DHT22;28026;48.562;14.440;2024-02-23T03:58:37;5.50;99.90
41592;DHT22;28026;48.562;14.440;2024-02-23T04:01:08;5.60;99.90
41592;DHT22;28026;48.562;14.440;2024-02-23T04:03:39;5.50;99.90
41592;DHT22;28026;48.562;14.440;2024-02-23T04:06:10;5.50;99.90
41592;DHT22;28026;48.562;14.440;2024-02-23T04:08:41;5.50;99.90
41592;DHT22;28026;48.562;14.440;2024-02-23T04:11:12;5.40;99.90
41592;DHT22;28026;48.562;14.440;2024-02-23T04:13:43;5.40;99.90
41592;DHT22;28026;48.562;14.440;2024-02-23T04:16:14;5.40;99.90
41592;DHT22;28026;48.562;14.440;2024-02-23T04:18:45;5.40;99.90
41592;DHT22;28026;48.562;14.440;2024-02-23T04:21:16;5.30;99.90
41592;DHT22;28026;48.562;14.440;2024-02-23T04:23:47;5.40;99.90
41592;DHT22;28026;48.562;14.440;2024-02-23T04:26:18;5.40;99.90
41592;DHT22;28026;48.562;14.440;2024-02-23T04:28:49;5.40;99.90
41592;DHT22;28026;48.562;14.440;2024-02-23T04:31:19;5.40;99.90
41592;DHT22;28026;48.562;14.440;2024-02-23T04:33:50;5.30;99.90
41592;DHT22;28026;48.562;14.440;2024-02-23T04:36:21;5.30;99.90
41592;DHT22;28026;48.562;14.440;2024-02-23T04:38:52;5.30;99.90
41592;DHT22;28026;48.562;14.440;2024-02-23T04:41:23;5.30;99.90
41592;DHT22;28026;48.562;14.440;2024-02-23T04:43:54;5.30;99.90
41592;DHT22;28026;48.562;14.440;2024-02-23T04:46:30;5.30;99.90
41592;DHT22;28026;48.562;14.440;2024-02-23T04:49:01;5.30;99.90
41592;DHT22;28026;48.562;14.440;2024-02-23T04:51:32;5.30;99.90
41592;DHT22;28026;48.562;14.440;2024-02-23T04:54:04;5.20;99.90
41592;DHT22;28026;48.562;14.440;2024-02-23T04:56:34;5.20;99.90
41592;DHT22;28026;48.562;14.440;2024-02-23T04:59:05;5.10;99.90
41592;DHT22;28026;48.562;14.440;2024-02-23T05:01:36;5.20;99.90
41592;DHT22;28026;48.562;14.440;2024-02-23T05:04:08;5.10;99.90
41592;DHT22;28026;48.562;14.440;2024-02-23T05:06:39;5.10;99.90
41592;DHT22;28026;48.562;14.440;2024-02-23T05:09:10;5.10;99.90
41592;DHT22;28026;48.562;14.440;2024-02-23T05:11:41;5.00;99.90
41592;DHT22;28026;48.562;14.440;2024-02-23T05:14:12;5.00;99.90
41592;DHT22;28026;48.562;14.440;2024-02-23T05:16:43;5.00;99.90
41592;DHT22;28026;48.562;14.440;2024-02-23T05:19:14;5.00;99.90
41592;DHT22;28026;48.562;14.440;2024-02-23T05:21:45;4.90;99.90
41592;DHT22;28026;48.562;14.440;2024-02-23T05:24:16;4.90;99.90
41592;DHT22;28026;48.562;14.440;2024-02-23T05:26:46;4.90;99.90
41592;DHT22;28026;48.562;14.440;2024-02-23T05:29:17;4.90;99.90
41592;DHT22;28026;48.562;14.440;2024-02-23T05:31:51;4.90;99.90
41592;DHT22;28026;48.562;14.440;2024-02-23T05:34:23;4.70;99.90
41592;DHT22;28026;48.562;14.440;2024-02-23T05:36:54;4.60;99.90
41592;DHT22;28026;48.562;14.440;2024-02-23T05:39:25;4.60;99.90
41592;DHT22;28026;48.562;14.440;2024-02-23T05:41:56;4.50;99.90
41592;DHT22;28026;48.562;14.440;2024-02-23T05:44:27;4.40;99.90
41592;DHT22;28026;48.562;14.440;2024-02-23T05:46:58;4.40;99.90
41592;DHT22;28026;48.562;14.440;2024-02-23T05:49:29;4.40;99.90
41592;DHT22;28026;48.562;14.440;2024-02-23T05:52:00;4.20;99.90
41592;DHT22;28026;48.562;14.440;2024-02-23T05:54:31;4.20;99.90
41592;DHT22;28026;48.562;14.440;2024-02-23T05:57:02;4.20;99.90
41592;DHT22;28026;48.562;14.440;2024-02-23T05:59:33;4.20;99.90
41592;DHT22;28026;48.562;14.440;2024-02-23T06:02:04;4.00;99.90
41592;DHT22;28026;48.562;14.440;2024-02-23T06:04:35;4.00;99.90
41592;DHT22;28026;48.562;14.440;2024-02-23T06:07:05;3.90;99.90
41592;DHT22;28026;48.562;14.440;2024-02-23T06:09:36;4.00;99.90
41592;DHT22;28026;48.562;14.440;2024-02-23T06:12:07;3.90;99.90
41592;DHT22;28026;48.562;14.440;2024-02-23T06:14:39;3.90;99.90
41592;DHT22;28026;48.562;14.440;2024-02-23T06:17:10;3.90;99.90
41592;DHT22;28026;48.562;14.440;2024-02-23T06:19:41;4.00;99.90
41592;DHT22;28026;48.562;14.440;2024-02-23T06:22:12;3.80;99.90
41592;DHT22;28026;48.562;14.440;2024-02-23T06:24:43;3.90;99.90
41592;DHT22;28026;48.562;14.440;2024-02-23T06:27:14;3.90;99.90
41592;DHT22;28026;48.562;14.440;2024-02-23T06:29:45;3.90;99.90
41592;DHT22;28026;48.562;14.440;2024-02-23T06:32:16;3.80;99.90
41592;DHT22;28026;48.562;14.440;2024-02-23T06:34:46;3.80;99.90
41592;DHT22;28026;48.562;14.440;2024-02-23T06:37:17;3.90;99.90
41592;DHT22;28026;48.562;14.440;2024-02-23T06:39:48;3.90;99.90
41592;DHT22;28026;48.562;14.440;2024-02-23T06:42:24;3.90;99.90
41592;DHT22;28026;48.562;14.440;2024-02-23T06:44:55;4.00;99.90
41592;DHT22;28026;48.562;14.440;2024-02-23T06:47:26;4.10;99.90
41592;DHT22;28026;48.562;14.440;2024-02-23T06:49:57;4.20;99.90
41592;DHT22;28026;48.562;14.440;2024-02-23T06:52:28;4.30;99.90
41592;DHT22;28026;48.562;14.440;2024-02-23T06:54:59;4.30;99.90
41592;DHT22;28026;48.562;14.440;2024-02-23T06:57:30;4.40;99.90
41592;DHT22;28026;48.562;14.440;2024-02-23T07:00:01;4.50;99.90
41592;DHT22;28026;48.562;14.440;2024-02-23T07:02:33;4.50;99.90
41592;DHT22;28026;48.562;14.440;2024-02-23T07:05:06;4.40;99.90
41592;DHT22;28026;48.562;14.440;2024-02-23T07:07:38;4.40;99.90
41592;DHT22;28026;48.562;14.440;2024-02-23T07:10:10;4.40;99.90
41592;DHT22;28026;48.562;14.440;2024-02-23T07:12:42;4.30;99.90
41592;DHT22;28026;48.562;14.440;2024-02-23T07:15:14;4.30;99.90
41592;DHT22;28026;48.562;14.440;2024-02-23T07:17:45;4.20;99.90
41592;DHT22;28026;48.562;14.440;2024-02-23T07:20:16;4.20;99.90
41592;DHT22;28026;48.562;14.440;2024-02-23T07:22:47;4.10;99.90
41592;DHT22;28026;48.562;14.440;2024-02-23T07:25:19;4.00;99.90
41592;DHT22;28026;48.562;14.440;2024-02-23T07:27:50;4.10;99.90
41592;DHT22;28026;48.562;14.440;2024-02-23T07:30:21;4.20;99.90
41592;DHT22;28026;48.562;14.440;2024-02-23T07:32:52;4.30;99.90
41592;DHT22;28026;48.562;14.440;2024-02-23T07:35:23;4.20;99.90
41592;DHT22;28026;48.562;14.440;2024-02-23T07:37:55;4.20;99.90
41592;DHT22;28026;48.562;14.440;2024-02-23T07:40:26;4.10;99.90
41592;DHT22;28026;48.562;14.440;2024-02-23T07:42:56;4.10;99.90
41592;DHT22;28026;48.562;14.440;2024-02-23T07:45:27;4.10;99.90
41592;DHT22;28026;48.562;14.440;2024-02-23T07:47:58;4.00;99.90
41592;DHT22;28026;48.562;14.440;2024-02-23T07:50:29;4.10;99.90
41592;DHT22;28026;48.562;14.440;2024-02-23T07:53:00;4.00;99.90
41592;DHT22;28026;48.562;14.440;2024-02-23T07:55:31;4.10;99.90
41592;DHT22;28026;48.562;14.440;2024-02-23T07:58:01;4.30;99.90
41592;DHT22;28026;48.562;14.440;2024-02-23T08:00:32;4.40;99.90
41592;DHT22;28026;48.562;14.440;2024-02-23T08:03:05;4.10;99.90
41592;DHT22;28026;48.562;14.440;2024-02-23T08:05:36;4.00;99.90
41592;DHT22;28026;48.562;14.440;2024-02-23T08:08:07;4.10;99.90
41592;DHT22;28026;48.562;14.440;2024-02-23T08:10:38;4.20;99.90
41592;DHT22;28026;48.562;14.440;2024-02-23T08:13:09;4.10;99.90
41592;DHT22;28026;48.562;14.440;2024-02-23T08:15:41;4.00;99.90
41592;DHT22;28026;48.562;14.440;2024-02-23T08:18:11;4.00;99.90
41592;DHT22;28026;48.562;14.440;2024-02-23T08:20:42;3.90;99.90
41592;DHT22;28026;48.562;14.440;2024-02-23T08:23:13;3.90;99.90
41592;DHT22;28026;48.562;14.440;2024-02-23T08:25:44;4.00;99.90
41592;DHT22;28026;48.562;14.440;2024-02-23T08:28:15;3.90;99.90
41592;DHT22;28026;48.562;14.440;2024-02-23T08:30:46;3.90;99.90
41592;DHT22;28026;48.562;14.440;2024-02-23T08:33:17;3.90;99.90
41592;DHT22;28026;48.562;14.440;2024-02-23T08:35:48;3.90;99.90
41592;DHT22;28026;48.562;14.440;2024-02-23T08:38:19;3.90;99.90
41592;DHT22;28026;48.562;14.440;2024-02-23T08:40:49;4.00;99.90
41592;DHT22;28026;48.562;14.440;2024-02-23T08:43:20;4.10;99.90
41592;DHT22;28026;48.562;14.440;2024-02-23T08:45:51;4.10;99.90
41592;DHT22;28026;48.562;14.440;2024-02-23T08:48:22;4.10;99.90
41592;DHT22;28026;48.562;14.440;2024-02-23T08:50:53;4.10;99.90
41592;DHT22;28026;48.562;14.440;2024-02-23T08:53:24;4.10;99.90
41592;DHT22;28026;48.562;14.440;2024-02-23T08:55:54;4.20;99.90
41592;DHT22;28026;48.562;14.440;2024-02-23T08:58:25;4.40;99.90
41592;DHT22;28026;48.562;14.440;2024-02-23T09:00:56;4.30;99.90
41592;DHT22;28026;48.562;14.440;2024-02-23T09:03:27;4.40;99.90
41592;DHT22;28026;48.562;14.440;2024-02-23T09:05:58;4.40;99.90
41592;DHT22;28026;48.562;14.440;2024-02-23T09:08:29;4.30;99.90
41592;DHT22;28026;48.562;14.440;2024-02-23T09:10:59;4.40;99.90
41592;DHT22;28026;48.562;14.440;2024-02-23T09:13:30;4.50;99.90
41592;DHT22;28026;48.562;14.440;2024-02-23T09:16:01;4.40;99.90
41592;DHT22;28026;48.562;14.440;2024-02-23T09:18:32;4.60;99.90
41592;DHT22;28026;48.562;14.440;2024-02-23T09:21:03;4.60;99.90
41592;DHT22;28026;48.562;14.440;2024-02-23T09:23:34;4.80;99.90
41592;DHT22;28026;48.562;14.440;2024-02-23T09:26:11;4.90;99.90
41592;DHT22;28026;48.562;14.440;2024-02-23T09:28:42;4.90;99.90
41592;DHT22;28026;48.562;14.440;2024-02-23T09:31:15;4.80;99.90
41592;DHT22;28026;48.562;14.440;2024-02-23T09:33:46;4.80;99.90
41592;DHT22;28026;48.562;14.440;2024-02-23T09:36:19;4.90;99.90
41592;DHT22;28026;48.562;14.440;2024-02-23T09:38:50;4.90;99.90
41592;DHT22;28026;48.562;14.440;2024-02-23T09:41:21;5.30;99.90
41592;DHT22;28026;48.562;14.440;2024-02-23T09:43:53;5.70;99.90
41592;DHT22;28026;48.562;14.440;2024-02-23T09:46:29;5.60;99.90
41592;DHT22;28026;48.562;14.440;2024-02-23T09:48:59;5.40;99.90
41592;DHT22;28026;48.562;14.440;2024-02-23T09:51:33;5.50;99.90
41592;DHT22;28026;48.562;14.440;2024-02-23T09:54:08;5.80;99.90
41592;DHT22;28026;48.562;14.440;2024-02-23T09:56:38;5.40;99.90
41592;DHT22;28026;48.562;14.440;2024-02-23T09:59:10;5.40;99.90
41592;DHT22;28026;48.562;14.440;2024-02-23T10:01:40;5.60;99.90
41592;DHT22;28026;48.562;14.440;2024-02-23T10:04:11;5.30;99.90
41592;DHT22;28026;48.562;14.440;2024-02-23T10:06:43;5.50;99.90
41592;DHT22;28026;48.562;14.440;2024-02-23T10:09:14;5.60;99.90
41592;DHT22;28026;48.562;14.440;2024-02-23T10:11:45;5.70;99.90
41592;DHT22;28026;48.562;14.440;2024-02-23T10:14:25;5.80;99.90
41592;DHT22;28026;48.562;14.440;2024-02-23T10:16:56;4.90;99.90
41592;DHT22;28026;48.562;14.440;2024-02-23T10:19:27;5.00;99.90
41592;DHT22;28026;48.562;14.440;2024-02-23T10:21:59;4.90;99.90
41592;DHT22;28026;48.562;14.440;2024-02-23T10:24:30;4.90;99.90
41592;DHT22;28026;48.562;14.440;2024-02-23T10:27:01;4.90;99.90
41592;DHT22;28026;48.562;14.440;2024-02-23T10:29:33;4.80;99.90
41592;DHT22;28026;48.562;14.440;2024-02-23T10:32:03;4.80;99.90
41592;DHT22;28026;48.562;14.440;2024-02-23T10:34:38;4.80;99.90
41592;DHT22;28026;48.562;14.440;2024-02-23T10:37:13;4.80;99.90
41592;DHT22;28026;48.562;14.440;2024-02-23T10:39:43;4.90;99.90
41592;DHT22;28026;48.562;14.440;2024-02-23T10:42:16;5.10;99.90
41592;DHT22;28026;48.562;14.440;2024-02-23T10:44:52;5.20;99.90
41592;DHT22;28026;48.562;14.440;2024-02-23T10:47:26;5.30;99.90
41592;DHT22;28026;48.562;14.440;2024-02-23T10:50:01;5.20;99.90
41592;DHT22;28026;48.562;14.440;2024-02-23T10:52:33;5.20;99.90
41592;DHT22;28026;48.562;14.440;2024-02-23T10:55:06;5.00;99.90
41592;DHT22;28026;48.562;14.440;2024-02-23T10:57:40;4.80;99.90
41592;DHT22;28026;48.562;14.440;2024-02-23T11:00:11;4.90;99.90
41592;DHT22;28026;48.562;14.440;2024-02-23T11:02:46;5.10;99.90
41592;DHT22;28026;48.562;14.440;2024-02-23T11:05:22;4.90;99.90
41592;DHT22;28026;48.562;14.440;2024-02-23T11:07:55;4.80;99.90
41592;DHT22;28026;48.562;14.440;2024-02-23T11:10:26;4.90;99.90
41592;DHT22;28026;48.562;14.440;2024-02-23T11:12:58;5.00;99.90
41592;DHT22;28026;48.562;14.440;2024-02-23T11:15:32;5.00;99.90
41592;DHT22;28026;48.562;14.440;2024-02-23T11:18:23;4.90;99.90
41592;DHT22;28026;48.562;14.440;2024-02-23T11:21:04;5.00;99.90
41592;DHT22;28026;48.562;14.440;2024-02-23T11:23:47;4.90;99.90
41592;DHT22;28026;48.562;14.440;2024-02-23T11:26:22;5.00;99.90
41592;DHT22;28026;48.562;14.440;2024-02-23T11:28:53;5.20;99.90
41592;DHT22;28026;48.562;14.440;2024-02-23T11:31:25;5.20;99.90
41592;DHT22;28026;48.562;14.440;2024-02-23T11:34:00;5.20;99.90
41592;DHT22;28026;48.562;14.440;2024-02-23T11:36:34;5.30;99.90
41592;DHT22;28026;48.562;14.440;2024-02-23T11:39:06;5.20;99.90
41592;DHT22;28026;48.562;14.440;2024-02-23T11:41:43;5.20;99.90
41592;DHT22;28026;48.562;14.440;2024-02-23T11:44:15;5.10;99.90
41592;DHT22;28026;48.562;14.440;2024-02-23T11:46:47;5.20;99.90
41592;DHT22;28026;48.562;14.440;2024-02-23T11:49:18;5.10;99.90
41592;DHT22;28026;48.562;14.440;2024-02-23T11:51:49;5.10;99.90
41592;DHT22;28026;48.562;14.440;2024-02-23T11:54:20;5.10;99.90
41592;DHT22;28026;48.562;14.440;2024-02-23T11:56:51;4.90;99.90
41592;DHT22;28026;48.562;14.440;2024-02-23T11:59:22;5.00;99.90
41592;DHT22;28026;48.562;14.440;2024-02-23T12:01:55;5.20;99.90
41592;DHT22;28026;48.562;14.440;2024-02-23T12:04:26;5.20;99.90
41592;DHT22;28026;48.562;14.440;2024-02-23T12:06:59;5.00;99.90
41592;DHT22;28026;48.562;14.440;2024-02-23T12:09:31;5.00;99.90
41592;DHT22;28026;48.562;14.440;2024-02-23T12:12:02;5.00;99.90
41592;DHT22;28026;48.562;14.440;2024-02-23T12:14:35;5.20;99.90
41592;DHT22;28026;48.562;14.440;2024-02-23T12:17:07;5.30;99.90
41592;DHT22;28026;48.562;14.440;2024-02-23T12:19:39;5.30;99.90
41592;DHT22;28026;48.562;14.440;2024-02-23T12:22:12;5.20;99.90
41592;DHT22;28026;48.562;14.440;2024-02-23T12:24:43;5.10;99.90
41592;DHT22;28026;48.562;14.440;2024-02-23T12:27:16;5.10;99.90
41592;DHT22;28026;48.562;14.440;2024-02-23T12:29:52;5.30;99.90
41592;DHT22;28026;48.562;14.440;2024-02-23T12:32:24;5.50;99.90
41592;DHT22;28026;48.562;14.440;2024-02-23T12:34:55;5.60;99.90
41592;DHT22;28026;48.562;14.440;2024-02-23T12:37:26;5.60;99.90
41592;DHT22;28026;48.562;14.440;2024-02-23T12:39:57;5.60;99.90
41592;DHT22;28026;48.562;14.440;2024-02-23T12:42:27;5.70;99.90
41592;DHT22;28026;48.562;14.440;2024-02-23T12:44:58;5.70;99.90
41592;DHT22;28026;48.562;14.440;2024-02-23T12:47:29;5.60;99.90
41592;DHT22;28026;48.562;14.440;2024-02-23T12:50:00;5.50;99.90
41592;DHT22;28026;48.562;14.440;2024-02-23T12:52:31;5.40;99.90
41592;DHT22;28026;48.562;14.440;2024-02-23T12:55:02;4.90;99.90
41592;DHT22;28026;48.562;14.440;2024-02-23T12:57:33;4.50;99.90
41592;DHT22;28026;48.562;14.440;2024-02-23T13:00:04;4.30;99.90
41592;DHT22;28026;48.562;14.440;2024-02-23T13:02:35;4.30;99.90
41592;DHT22;28026;48.562;14.440;2024-02-23T13:05:06;4.40;99.90
41592;DHT22;28026;48.562;14.440;2024-02-23T13:07:37;4.50;99.90
41592;DHT22;28026;48.562;14.440;2024-02-23T13:10:10;4.30;99.90
41592;DHT22;28026;48.562;14.440;2024-02-23T13:12:41;4.20;99.90
41592;DHT22;28026;48.562;14.440;2024-02-23T13:15:12;4.30;99.90
41592;DHT22;28026;48.562;14.440;2024-02-23T13:17:43;4.30;99.90
41592;DHT22;28026;48.562;14.440;2024-02-23T13:20:14;4.20;99.90
41592;DHT22;28026;48.562;14.440;2024-02-23T13:22:45;4.20;99.90
41592;DHT22;28026;48.562;14.440;2024-02-23T13:25:16;4.20;99.90
41592;DHT22;28026;48.562;14.440;2024-02-23T13:27:47;4.30;99.90
41592;DHT22;28026;48.562;14.440;2024-02-23T13:30:17;4.30;99.90
41592;DHT22;28026;48.562;14.440;2024-02-23T13:32:48;4.40;99.90
41592;DHT22;28026;48.562;14.440;2024-02-23T13:35:19;4.40;99.90
41592;DHT22;28026;48.562;14.440;2024-02-23T13:37:50;4.40;99.90
41592;DHT22;28026;48.562;14.440;2024-02-23T13:40:21;4.50;99.90
41592;DHT22;28026;48.562;14.440;2024-02-23T13:42:52;4.60;99.90
41592;DHT22;28026;48.562;14.440;2024-02-23T13:45:23;4.50;99.90
41592;DHT22;28026;48.562;14.440;2024-02-23T13:50:31;4.20;99.90
41592;DHT22;28026;48.562;14.440;2024-02-23T13:53:03;4.20;99.90
41592;DHT22;28026;48.562;14.440;2024-02-23T13:55:34;4.10;99.90
41592;DHT22;28026;48.562;14.440;2024-02-23T13:58:05;4.00;99.90
41592;DHT22;28026;48.562;14.440;2024-02-23T14:00:35;4.10;99.90
41592;DHT22;28026;48.562;14.440;2024-02-23T14:03:06;4.20;99.90
41592;DHT22;28026;48.562;14.440;2024-02-23T14:05:38;4.10;99.90
41592;DHT22;28026;48.562;14.440;2024-02-23T14:08:09;4.20;99.90
41592;DHT22;28026;48.562;14.440;2024-02-23T14:10:40;3.80;99.90
41592;DHT22;28026;48.562;14.440;2024-02-23T14:13:13;3.80;99.90
41592;DHT22;28026;48.562;14.440;2024-02-23T14:15:44;3.70;99.90
41592;DHT22;28026;48.562;14.440;2024-02-23T14:18:15;3.90;99.90
41592;DHT22;28026;48.562;14.440;2024-02-23T14:20:46;4.00;99.90
41592;DHT22;28026;48.562;14.440;2024-02-23T14:23:17;4.10;99.90
41592;DHT22;28026;48.562;14.440;2024-02-23T14:25:48;4.30;99.90
41592;DHT22;28026;48.562;14.440;2024-02-23T14:28:19;4.30;99.90
41592;DHT22;28026;48.562;14.440;2024-02-23T14:30:49;4.20;99.90
41592;DHT22;28026;48.562;14.440;2024-02-23T14:33:20;4.20;99.90
41592;DHT22;28026;48.562;14.440;2024-02-23T14:35:51;4.30;99.90
41592;DHT22;28026;48.562;14.440;2024-02-23T14:38:22;4.40;99.90
41592;DHT22;28026;48.562;14.440;2024-02-23T14:40:53;4.30;99.90
41592;DHT22;28026;48.562;14.440;2024-02-23T14:43:24;4.10;99.90
41592;DHT22;28026;48.562;14.440;2024-02-23T14:45:55;4.00;99.90
41592;DHT22;28026;48.562;14.440;2024-02-23T14:48:26;3.80;99.90
41592;DHT22;28026;48.562;14.440;2024-02-23T14:50:56;3.60;99.90
41592;DHT22;28026;48.562;14.440;2024-02-23T14:53:28;3.60;99.90
41592;DHT22;28026;48.562;14.440;2024-02-23T14:55:59;3.40;99.90
41592;DHT22;28026;48.562;14.440;2024-02-23T14:58:29;3.40;99.90
41592;DHT22;28026;48.562;14.440;2024-02-23T15:01:00;3.40;99.90
41592;DHT22;28026;48.562;14.440;2024-02-23T15:03:31;3.30;99.90
41592;DHT22;28026;48.562;14.440;2024-02-23T15:06:03;3.30;99.90
41592;DHT22;28026;48.562;14.440;2024-02-23T15:08:34;3.50;99.90
41592;DHT22;28026;48.562;14.440;2024-02-23T15:11:04;3.60;99.90
41592;DHT22;28026;48.562;14.440;2024-02-23T15:13:36;3.60;99.90
41592;DHT22;28026;48.562;14.440;2024-02-23T15:16:07;3.30;99.90
41592;DHT22;28026;48.562;14.440;2024-02-23T15:18:38;3.40;99.90
41592;DHT22;28026;48.562;14.440;2024-02-23T15:21:09;3.50;99.90
41592;DHT22;28026;48.562;14.440;2024-02-23T15:23:42;3.40;99.90
41592;DHT22;28026;48.562;14.440;2024-02-23T15:26:13;3.50;99.90
41592;DHT22;28026;48.562;14.440;2024-02-23T15:28:45;3.50;99.90
41592;DHT22;28026;48.562;14.440;2024-02-23T15:31:16;3.60;99.90
41592;DHT22;28026;48.562;14.440;2024-02-23T15:33:47;3.70;99.90
41592;DHT22;28026;48.562;14.440;2024-02-23T15:36:17;3.70;99.90
41592;DHT22;28026;48.562;14.440;2024-02-23T15:38:48;3.70;99.90
41592;DHT22;28026;48.562;14.440;2024-02-23T15:41:19;3.80;99.90
41592;DHT22;28026;48.562;14.440;2024-02-23T15:43:50;3.80;99.90
41592;DHT22;28026;48.562;14.440;2024-02-23T15:46:21;3.70;99.90
41592;DHT22;28026;48.562;14.440;2024-02-23T15:48:52;3.70;99.90
41592;DHT22;28026;48.562;14.440;2024-02-23T15:51:23;3.70;99.90
41592;DHT22;28026;48.562;14.440;2024-02-23T15:53:54;3.60;99.90
41592;DHT22;28026;48.562;14.440;2024-02-23T15:56:25;3.60;99.90
41592;DHT22;28026;48.562;14.440;2024-02-23T15:58:56;3.50;99.90